Garden Spring, Nevada Weather observations

Data are for 10 minute period ending at time listed.
 Day   Time    Ave.   Ave.  Ave.  Vector   Max.   Stn.    Total    Solar   Ave.  
  of    of     Air    Rel.  Wind   Wind    Wind   Baro.  Precip.   Rad.    Soil  
Year   Day     Temp.  Hum.  Speed  Dir.    Gust   Pres.                    Temp. 
2014   (PST)    F      %     mph   deg.    mph     mb.     in.     W/m2     F    
--------------------------------------------------------------------------------- 
 257   17:00   86.8    16    4.9   185     10.9   851.5    0.00     228    87.4  
 257   18:00   81.3    20    3.1   216      6.3   851.6    0.00      33    86.7  
 257   19:00   75.1    25    3.3   305      5.7   851.8    0.00       0    85.7  
 257   20:00   72.9    26    3.9   273      6.3   852.4    0.00       0    84.6  
 257   21:00   71.9    26    4.0   285      7.1   852.6    0.00       0    83.3  
 257   22:00   72.6    25    4.4   269      7.6   852.8    0.00       0    82.1  
 257   23:00   73.5    27    4.8   273      7.3   853.0    0.00       0    81.0  
 258    0:00   70.9    28    4.3   284      6.6   853.2    0.00       0    79.8  
 258    1:00  999.0   999  999.0   999    999.0   999.0   999.00     999    999.0  
 258    2:00  999.0   999  999.0   999    999.0   999.0   999.00     999    999.0  
 258    3:00   68.9    30    4.5   273      6.5   853.3    0.00       0    77.2  
 258    4:00   68.9    30    4.9   280      7.8   853.5    0.00       0    76.5  
 258    5:00   68.6    31    4.3   278      6.2   853.8    0.00       0    75.8  
 258    6:00   68.9    31    4.4   280      6.4   854.4    0.00      23    75.2  
 258    7:00   79.2    25    1.4   274      3.8   854.8    0.00     182    75.5  
 258    8:00   84.9    18    3.2   107      8.3   855.1    0.00     384    75.6  
 258    9:00   85.0    17    4.7   118     10.0   855.4    0.00     571    75.7  
 258   10:00   86.3    17    5.1   129     11.9   855.4    0.00     721    76.5  
 258   11:00   87.5    17    6.0   144     13.1   855.3    0.00     823    77.5  
 258   12:00   89.1    16    6.4   166     14.1   854.8    0.00     862    79.3  
 258   13:00   89.9    16    7.0   175     14.4   854.3    0.00     837    81.9  
 258   14:00   90.2    15    6.4   168     16.1   853.8    0.00     755    84.6  
 258   15:00   90.8    14    5.9   166     13.9   853.4    0.00     608    86.6  
 258   16:00   90.6    13    5.3   172     14.1   853.1    0.00     424    87.8  

Return to Garden Spring, Nevada graphs page.


Western Regional Climate Center,wrcc@dri.edu